sensor_id;sensor_type;location;lat;lon;timestamp;pressure;altitude;pressure_sealevel;temperature;humidity
21869;BME280;11099;41.564;23.296;2023-07-20T00:01:14;97083.44;;;27.61;54.22
21869;BME280;11099;41.564;23.296;2023-07-20T00:03:40;97027.25;;;27.43;54.29
21869;BME280;11099;41.564;23.296;2023-07-20T00:06:06;97024.69;;;27.36;54.80
21869;BME280;11099;41.564;23.296;2023-07-20T00:08:31;97010.13;;;27.72;53.91
21869;BME280;11099;41.564;23.296;2023-07-20T00:10:57;96997.97;;;27.27;55.46
21869;BME280;11099;41.564;23.296;2023-07-20T00:13:22;96970.94;;;26.80;56.82
21869;BME280;11099;41.564;23.296;2023-07-20T00:15:48;96924.72;;;26.90;55.97
21869;BME280;11099;41.564;23.296;2023-07-20T00:18:14;96986.19;;;27.14;56.20
21869;BME280;11099;41.564;23.296;2023-07-20T00:20:40;97027.81;;;27.35;55.90
21869;BME280;11099;41.564;23.296;2023-07-20T00:23:05;97008.44;;;27.29;55.85
21869;BME280;11099;41.564;23.296;2023-07-20T00:25:31;97019.91;;;27.24;55.85
21869;BME280;11099;41.564;23.296;2023-07-20T00:27:57;97029.97;;;27.43;55.87
21869;BME280;11099;41.564;23.296;2023-07-20T00:30:22;97054.19;;;27.74;54.97
21869;BME280;11099;41.564;23.296;2023-07-20T00:32:48;97091.94;;;27.95;54.45
21869;BME280;11099;41.564;23.296;2023-07-20T00:35:13;96993.72;;;27.55;53.75
21869;BME280;11099;41.564;23.296;2023-07-20T00:37:39;97029.81;;;27.79;53.37
21869;BME280;11099;41.564;23.296;2023-07-20T00:40:05;97035.00;;;27.90;53.62
21869;BME280;11099;41.564;23.296;2023-07-20T00:42:33;97025.22;;;27.76;53.98
21869;BME280;11099;41.564;23.296;2023-07-20T00:44:58;97080.34;;;27.91;54.74
21869;BME280;11099;41.564;23.296;2023-07-20T00:47:24;97076.53;;;28.01;54.60
21869;BME280;11099;41.564;23.296;2023-07-20T00:49:51;97001.09;;;27.42;54.86
21869;BME280;11099;41.564;23.296;2023-07-20T00:52:18;97073.91;;;27.98;54.62
21869;BME280;11099;41.564;23.296;2023-07-20T00:54:44;97077.19;;;28.05;54.28
21869;BME280;11099;41.564;23.296;2023-07-20T00:57:12;97066.72;;;28.17;54.06
21869;BME280;11099;41.564;23.296;2023-07-20T00:59:39;97047.34;;;27.82;54.93
21869;BME280;11099;41.564;23.296;2023-07-20T01:02:05;97046.00;;;28.03;53.75
21869;BME280;11099;41.564;23.296;2023-07-20T01:04:30;97015.00;;;27.48;54.77
21869;BME280;11099;41.564;23.296;2023-07-20T01:07:11;97084.09;;;27.97;54.36
21869;BME280;11099;41.564;23.296;2023-07-20T01:10:20;97082.53;;;27.96;54.91
21869;BME280;11099;41.564;23.296;2023-07-20T01:12:52;97078.25;;;27.95;54.96
21869;BME280;11099;41.564;23.296;2023-07-20T01:15:18;97050.34;;;27.88;54.58
21869;BME280;11099;41.564;23.296;2023-07-20T01:17:44;96984.28;;;27.27;55.48
21869;BME280;11099;41.564;23.296;2023-07-20T01:20:14;97051.38;;;27.61;55.51
21869;BME280;11099;41.564;23.296;2023-07-20T01:33:44;97082.03;;;27.69;55.57
21869;BME280;11099;41.564;23.296;2023-07-20T01:36:13;97040.63;;;27.54;55.37
21869;BME280;11099;41.564;23.296;2023-07-20T01:38:40;97069.75;;;27.12;57.83
21869;BME280;11099;41.564;23.296;2023-07-20T01:41:06;97007.41;;;26.38;59.42
21869;BME280;11099;41.564;23.296;2023-07-20T01:43:32;96974.00;;;25.94;59.83
21869;BME280;11099;41.564;23.296;2023-07-20T01:45:57;97041.97;;;26.97;57.60
21869;BME280;11099;41.564;23.296;2023-07-20T01:48:22;97072.44;;;26.95;58.19
21869;BME280;11099;41.564;23.296;2023-07-20T01:50:48;97034.97;;;26.04;60.92
21869;BME280;11099;41.564;23.296;2023-07-20T01:53:13;96997.59;;;26.20;58.88
21869;BME280;11099;41.564;23.296;2023-07-20T01:55:39;96995.56;;;26.24;58.69
21869;BME280;11099;41.564;23.296;2023-07-20T01:58:04;97045.69;;;26.54;58.75
21869;BME280;11099;41.564;23.296;2023-07-20T02:00:31;96987.97;;;26.16;58.53
21869;BME280;11099;41.564;23.296;2023-07-20T02:02:57;97083.03;;;26.93;57.97
21869;BME280;11099;41.564;23.296;2023-07-20T02:05:22;96984.06;;;25.97;58.81
21869;BME280;11099;41.564;23.296;2023-07-20T02:07:47;97004.38;;;26.52;57.45
21869;BME280;11099;41.564;23.296;2023-07-20T02:10:13;97086.16;;;27.12;57.16
21869;BME280;11099;41.564;23.296;2023-07-20T02:12:38;96971.00;;;26.24;57.48
21869;BME280;11099;41.564;23.296;2023-07-20T02:15:04;97069.91;;;27.04;56.98
21869;BME280;11099;41.564;23.296;2023-07-20T02:17:30;97036.59;;;26.77;56.99
21869;BME280;11099;41.564;23.296;2023-07-20T02:19:56;97090.19;;;26.87;57.54
21869;BME280;11099;41.564;23.296;2023-07-20T02:22:23;97046.91;;;26.86;57.27
21869;BME280;11099;41.564;23.296;2023-07-20T02:24:49;97047.47;;;27.13;55.81
21869;BME280;11099;41.564;23.296;2023-07-20T02:27:15;97078.09;;;27.04;56.93
21869;BME280;11099;41.564;23.296;2023-07-20T02:29:41;97055.28;;;26.95;57.00
21869;BME280;11099;41.564;23.296;2023-07-20T02:32:08;97087.88;;;27.22;56.58
21869;BME280;11099;41.564;23.296;2023-07-20T02:34:35;97074.34;;;26.98;57.75
21869;BME280;11099;41.564;23.296;2023-07-20T02:37:00;97091.44;;;27.19;56.78
21869;BME280;11099;41.564;23.296;2023-07-20T02:39:29;97080.44;;;26.86;56.68
21869;BME280;11099;41.564;23.296;2023-07-20T02:41:55;96994.31;;;26.29;55.98
21869;BME280;11099;41.564;23.296;2023-07-20T02:44:21;97020.09;;;26.64;55.17
21869;BME280;11099;41.564;23.296;2023-07-20T02:46:46;97077.03;;;26.82;55.46
21869;BME280;11099;41.564;23.296;2023-07-20T02:49:12;97041.63;;;26.78;54.95
21869;BME280;11099;41.564;23.296;2023-07-20T02:51:37;96976.56;;;26.21;54.69
21869;BME280;11099;41.564;23.296;2023-07-20T02:54:03;97087.47;;;26.87;55.20
21869;BME280;11099;41.564;23.296;2023-07-20T02:56:29;97001.94;;;26.38;54.24
21869;BME280;11099;41.564;23.296;2023-07-20T02:58:54;97100.84;;;26.82;54.77
21869;BME280;11099;41.564;23.296;2023-07-20T03:01:20;97109.88;;;26.78;55.18
21869;BME280;11099;41.564;23.296;2023-07-20T03:03:45;97078.78;;;26.56;55.39
21869;BME280;11099;41.564;23.296;2023-07-20T03:06:14;97110.84;;;26.88;54.54
21869;BME280;11099;41.564;23.296;2023-07-20T03:08:41;97071.56;;;26.66;54.70
21869;BME280;11099;41.564;23.296;2023-07-20T03:11:13;97079.31;;;26.47;54.98
21869;BME280;11099;41.564;23.296;2023-07-20T03:13:39;97070.91;;;26.38;55.82
21869;BME280;11099;41.564;23.296;2023-07-20T03:16:04;97063.06;;;26.40;54.88
21869;BME280;11099;41.564;23.296;2023-07-20T03:18:30;97066.16;;;26.42;54.67
21869;BME280;11099;41.564;23.296;2023-07-20T03:20:56;97128.53;;;27.00;54.39
21869;BME280;11099;41.564;23.296;2023-07-20T03:23:22;97034.75;;;26.34;54.10
21869;BME280;11099;41.564;23.296;2023-07-20T03:25:47;97052.22;;;26.57;53.96
21869;BME280;11099;41.564;23.296;2023-07-20T03:28:12;97037.56;;;26.50;53.59
21869;BME280;11099;41.564;23.296;2023-07-20T03:30:38;96997.38;;;26.31;53.71
21869;BME280;11099;41.564;23.296;2023-07-20T03:33:03;97114.59;;;27.14;53.45
21869;BME280;11099;41.564;23.296;2023-07-20T03:35:30;97022.25;;;26.17;54.60
21869;BME280;11099;41.564;23.296;2023-07-20T03:37:56;97042.94;;;26.14;55.42
21869;BME280;11099;41.564;23.296;2023-07-20T03:40:22;97096.84;;;26.86;54.54
21869;BME280;11099;41.564;23.296;2023-07-20T03:42:48;97109.69;;;27.05;54.90
21869;BME280;11099;41.564;23.296;2023-07-20T03:45:13;97076.28;;;26.82;54.22
21869;BME280;11099;41.564;23.296;2023-07-20T03:47:39;97121.00;;;27.24;54.09
21869;BME280;11099;41.564;23.296;2023-07-20T03:50:05;97074.41;;;26.59;55.50
21869;BME280;11099;41.564;23.296;2023-07-20T03:52:30;97091.00;;;26.68;55.45
21869;BME280;11099;41.564;23.296;2023-07-20T03:54:56;97074.31;;;26.82;54.13
21869;BME280;11099;41.564;23.296;2023-07-20T03:57:21;97023.19;;;26.46;54.16
21869;BME280;11099;41.564;23.296;2023-07-20T03:59:48;97073.47;;;27.01;53.57
21869;BME280;11099;41.564;23.296;2023-07-20T04:02:13;97089.47;;;27.52;53.28
21869;BME280;11099;41.564;23.296;2023-07-20T04:04:40;97103.84;;;27.40;52.70
21869;BME280;11099;41.564;23.296;2023-07-20T04:07:05;97123.84;;;27.37;53.17
21869;BME280;11099;41.564;23.296;2023-07-20T04:09:32;97120.69;;;27.54;52.77
21869;BME280;11099;41.564;23.296;2023-07-20T04:11:57;97089.34;;;27.75;51.70
21869;BME280;11099;41.564;23.296;2023-07-20T04:14:23;97070.63;;;28.03;50.46
21869;BME280;11099;41.564;23.296;2023-07-20T04:16:48;97054.16;;;27.90;48.87
21869;BME280;11099;41.564;23.296;2023-07-20T04:19:14;97093.06;;;28.69;48.00
21869;BME280;11099;41.564;23.296;2023-07-20T04:21:40;97125.06;;;30.21;45.96
21869;BME280;11099;41.564;23.296;2023-07-20T04:24:09;97125.81;;;30.87;45.99
21869;BME280;11099;41.564;23.296;2023-07-20T04:26:34;97027.31;;;30.77;43.53
21869;BME280;11099;41.564;23.296;2023-07-20T04:29:00;97138.34;;;31.51;42.15
21869;BME280;11099;41.564;23.296;2023-07-20T04:31:26;97143.00;;;31.01;42.75
21869;BME280;11099;41.564;23.296;2023-07-20T04:33:52;97117.84;;;30.36;44.41
21869;BME280;11099;41.564;23.296;2023-07-20T04:36:17;97151.22;;;29.65;46.71
21869;BME280;11099;41.564;23.296;2023-07-20T04:38:47;97037.84;;;28.83;47.64
21869;BME280;11099;41.564;23.296;2023-07-20T04:41:13;96988.09;;;28.33;48.05
21869;BME280;11099;41.564;23.296;2023-07-20T04:43:42;97141.91;;;29.25;49.02
21869;BME280;11099;41.564;23.296;2023-07-20T04:46:09;97037.97;;;28.25;49.98
21869;BME280;11099;41.564;23.296;2023-07-20T04:48:34;97107.47;;;29.97;46.18
21869;BME280;11099;41.564;23.296;2023-07-20T04:51:00;97148.47;;;29.65;47.47
21869;BME280;11099;41.564;23.296;2023-07-20T04:53:26;97130.75;;;30.70;45.25
21869;BME280;11099;41.564;23.296;2023-07-20T04:55:52;97137.53;;;30.79;44.76
21869;BME280;11099;41.564;23.296;2023-07-20T04:58:22;97131.72;;;32.16;41.74
21869;BME280;11099;41.564;23.296;2023-07-20T05:00:49;97125.59;;;31.93;42.17
21869;BME280;11099;41.564;23.296;2023-07-20T05:03:14;97007.22;;;31.66;40.86
21869;BME280;11099;41.564;23.296;2023-07-20T05:05:40;97028.78;;;32.04;40.22
21869;BME280;11099;41.564;23.296;2023-07-20T05:08:05;97134.59;;;32.76;39.81
21869;BME280;11099;41.564;23.296;2023-07-20T05:10:31;97073.06;;;32.61;39.55
21869;BME280;11099;41.564;23.296;2023-07-20T05:12:58;97108.59;;;32.50;40.72
21869;BME280;11099;41.564;23.296;2023-07-20T05:15:23;97135.97;;;32.63;40.42
21869;BME280;11099;41.564;23.296;2023-07-20T05:17:49;97043.75;;;32.12;40.06
21869;BME280;11099;41.564;23.296;2023-07-20T05:20:14;97131.63;;;31.61;42.70
21869;BME280;11099;41.564;23.296;2023-07-20T05:22:40;97111.22;;;32.26;41.56
21869;BME280;11099;41.564;23.296;2023-07-20T05:25:09;97111.97;;;32.36;41.54
21869;BME280;11099;41.564;23.296;2023-07-20T05:27:39;97108.00;;;33.49;39.38
21869;BME280;11099;41.564;23.296;2023-07-20T05:30:06;97123.09;;;33.87;38.66
21869;BME280;11099;41.564;23.296;2023-07-20T05:32:32;97093.06;;;33.22;39.29
21869;BME280;11099;41.564;23.296;2023-07-20T05:34:58;97103.59;;;33.33;39.56
21869;BME280;11099;41.564;23.296;2023-07-20T05:37:23;97058.69;;;33.42;38.66
21869;BME280;11099;41.564;23.296;2023-07-20T05:39:49;97134.94;;;33.54;39.11
21869;BME280;11099;41.564;23.296;2023-07-20T05:42:15;97100.34;;;33.35;39.83
21869;BME280;11099;41.564;23.296;2023-07-20T05:44:41;97100.56;;;33.31;40.00
21869;BME280;11099;41.564;23.296;2023-07-20T05:47:06;97132.59;;;33.86;39.22
21869;BME280;11099;41.564;23.296;2023-07-20T05:49:32;97099.78;;;32.97;39.88
21869;BME280;11099;41.564;23.296;2023-07-20T05:51:57;97099.94;;;33.27;39.70
21869;BME280;11099;41.564;23.296;2023-07-20T05:54:26;97145.97;;;33.21;39.81
21869;BME280;11099;41.564;23.296;2023-07-20T05:56:52;97076.97;;;32.88;39.44
21869;BME280;11099;41.564;23.296;2023-07-20T05:59:18;97097.00;;;32.37;40.75
21869;BME280;11099;41.564;23.296;2023-07-20T06:01:45;97084.69;;;33.17;39.40
21869;BME280;11099;41.564;23.296;2023-07-20T06:04:12;97088.97;;;33.75;38.40
21869;BME280;11099;41.564;23.296;2023-07-20T06:06:37;97110.09;;;33.78;38.25
21869;BME280;11099;41.564;23.296;2023-07-20T06:09:04;97128.44;;;34.14;37.73
21869;BME280;11099;41.564;23.296;2023-07-20T06:11:30;97037.34;;;34.05;37.29
21869;BME280;11099;41.564;23.296;2023-07-20T06:13:56;97069.91;;;33.77;38.50
21869;BME280;11099;41.564;23.296;2023-07-20T06:16:22;97122.41;;;34.69;37.22
21869;BME280;11099;41.564;23.296;2023-07-20T06:18:48;97086.53;;;33.11;39.29
21869;BME280;11099;41.564;23.296;2023-07-20T06:21:13;97133.72;;;34.03;38.54
21869;BME280;11099;41.564;23.296;2023-07-20T06:23:39;97075.81;;;33.46;39.16
21869;BME280;11099;41.564;23.296;2023-07-20T06:26:06;97136.28;;;34.30;38.32
21869;BME280;11099;41.564;23.296;2023-07-20T06:28:32;97095.94;;;34.09;37.58
21869;BME280;11099;41.564;23.296;2023-07-20T06:31:01;97099.19;;;34.07;37.71
21869;BME280;11099;41.564;23.296;2023-07-20T06:33:27;97094.84;;;33.01;39.40
21869;BME280;11099;41.564;23.296;2023-07-20T06:35:52;97079.06;;;33.02;39.49
21869;BME280;11099;41.564;23.296;2023-07-20T06:38:18;97117.34;;;32.21;41.20
21869;BME280;11099;41.564;23.296;2023-07-20T06:40:47;97116.66;;;33.56;39.56
21869;BME280;11099;41.564;23.296;2023-07-20T06:43:12;97101.00;;;33.87;38.44
21869;BME280;11099;41.564;23.296;2023-07-20T06:45:38;97070.38;;;33.99;37.78
21869;BME280;11099;41.564;23.296;2023-07-20T06:48:03;97066.16;;;34.43;37.61
21869;BME280;11099;41.564;23.296;2023-07-20T06:50:29;97091.25;;;34.69;36.66
21869;BME280;11099;41.564;23.296;2023-07-20T06:52:54;97090.66;;;34.94;36.01
21869;BME280;11099;41.564;23.296;2023-07-20T06:55:20;97116.19;;;35.19;35.88
21869;BME280;11099;41.564;23.296;2023-07-20T06:57:46;97060.50;;;34.22;37.41
21869;BME280;11099;41.564;23.296;2023-07-20T07:00:12;97097.72;;;34.66;37.49
21869;BME280;11099;41.564;23.296;2023-07-20T07:02:38;97002.94;;;33.91;37.64
21869;BME280;11099;41.564;23.296;2023-07-20T07:05:03;97116.69;;;34.73;37.24
21869;BME280;11099;41.564;23.296;2023-07-20T07:07:29;97009.94;;;34.16;37.41
21869;BME280;11099;41.564;23.296;2023-07-20T07:09:54;97057.53;;;34.11;37.47
21869;BME280;11099;41.564;23.296;2023-07-20T07:12:20;97062.41;;;34.16;37.82
21869;BME280;11099;41.564;23.296;2023-07-20T07:14:45;97079.63;;;33.48;38.95
21869;BME280;11099;41.564;23.296;2023-07-20T07:17:11;97057.56;;;33.48;38.77
21869;BME280;11099;41.564;23.296;2023-07-20T07:19:36;97069.00;;;33.23;39.27
21869;BME280;11099;41.564;23.296;2023-07-20T07:22:04;97100.41;;;34.06;38.15
21869;BME280;11099;41.564;23.296;2023-07-20T07:24:29;97108.25;;;34.38;38.40
21869;BME280;11099;41.564;23.296;2023-07-20T07:26:59;97097.25;;;33.99;38.82
21869;BME280;11099;41.564;23.296;2023-07-20T07:29:24;97065.44;;;33.41;38.48
21869;BME280;11099;41.564;23.296;2023-07-20T07:31:51;97074.00;;;34.05;38.17
21869;BME280;11099;41.564;23.296;2023-07-20T07:34:16;97056.94;;;34.46;37.35
21869;BME280;11099;41.564;23.296;2023-07-20T07:36:42;97053.66;;;34.32;37.43
21869;BME280;11099;41.564;23.296;2023-07-20T07:39:08;97065.38;;;33.89;37.47
21869;BME280;11099;41.564;23.296;2023-07-20T07:41:35;97091.19;;;34.24;37.88
21869;BME280;11099;41.564;23.296;2023-07-20T07:44:00;97046.69;;;33.69;38.46
21869;BME280;11099;41.564;23.296;2023-07-20T07:46:26;97096.28;;;34.41;38.36
21869;BME280;11099;41.564;23.296;2023-07-20T07:48:51;97112.28;;;34.81;38.42
21869;BME280;11099;41.564;23.296;2023-07-20T07:51:17;97032.31;;;34.77;37.38
21869;BME280;11099;41.564;23.296;2023-07-20T07:53:42;97067.47;;;34.92;37.45
21869;BME280;11099;41.564;23.296;2023-07-20T07:56:11;97031.69;;;34.53;37.83
21869;BME280;11099;41.564;23.296;2023-07-20T07:58:37;97077.03;;;34.76;37.94
21869;BME280;11099;41.564;23.296;2023-07-20T08:01:03;97073.91;;;34.68;38.28
21869;BME280;11099;41.564;23.296;2023-07-20T08:03:31;97065.56;;;34.24;38.99
21869;BME280;11099;41.564;23.296;2023-07-20T08:05:57;97038.00;;;33.61;38.94
21869;BME280;11099;41.564;23.296;2023-07-20T08:08:23;97123.09;;;34.79;37.76
21869;BME280;11099;41.564;23.296;2023-07-20T08:10:50;97082.75;;;34.72;37.61
21869;BME280;11099;41.564;23.296;2023-07-20T08:13:17;97062.63;;;33.89;38.96
21869;BME280;11099;41.564;23.296;2023-07-20T08:15:50;97019.06;;;33.93;38.66
21869;BME280;11099;41.564;23.296;2023-07-20T08:18:17;97067.28;;;34.21;39.42
21869;BME280;11099;41.564;23.296;2023-07-20T08:20:44;97054.03;;;33.96;38.46
21869;BME280;11099;41.564;23.296;2023-07-20T08:23:10;97118.97;;;34.89;37.75
21869;BME280;11099;41.564;23.296;2023-07-20T08:25:39;97087.31;;;34.60;38.12
21869;BME280;11099;41.564;23.296;2023-07-20T08:28:18;97029.38;;;34.07;38.23
21869;BME280;11099;41.564;23.296;2023-07-20T08:30:48;97012.69;;;34.01;38.96
21869;BME280;11099;41.564;23.296;2023-07-20T08:33:14;97097.78;;;34.42;39.47
21869;BME280;11099;41.564;23.296;2023-07-20T08:35:40;97058.47;;;34.62;39.10
21869;BME280;11099;41.564;23.296;2023-07-20T08:38:07;97090.09;;;34.90;38.39
21869;BME280;11099;41.564;23.296;2023-07-20T08:40:43;97062.56;;;35.16;37.50
21869;BME280;11099;41.564;23.296;2023-07-20T08:43:11;97087.91;;;35.29;37.70
21869;BME280;11099;41.564;23.296;2023-07-20T08:45:39;97093.88;;;34.93;38.00
21869;BME280;11099;41.564;23.296;2023-07-20T08:48:07;97092.47;;;35.32;36.43
21869;BME280;11099;41.564;23.296;2023-07-20T08:50:33;97097.19;;;35.61;36.32
21869;BME280;11099;41.564;23.296;2023-07-20T08:53:00;97082.22;;;35.74;35.39
21869;BME280;11099;41.564;23.296;2023-07-20T08:55:26;97003.47;;;34.99;35.90
21869;BME280;11099;41.564;23.296;2023-07-20T08:57:56;97085.47;;;35.17;36.80
21869;BME280;11099;41.564;23.296;2023-07-20T09:00:23;97078.91;;;34.99;36.84
21869;BME280;11099;41.564;23.296;2023-07-20T09:02:51;97074.16;;;35.00;37.14
21869;BME280;11099;41.564;23.296;2023-07-20T09:05:18;97026.06;;;35.12;36.58
21869;BME280;11099;41.564;23.296;2023-07-20T09:07:43;97070.47;;;35.58;36.88
21869;BME280;11099;41.564;23.296;2023-07-20T09:10:10;97036.81;;;35.10;37.12
21869;BME280;11099;41.564;23.296;2023-07-20T09:12:37;97043.41;;;35.48;36.67
21869;BME280;11099;41.564;23.296;2023-07-20T09:15:04;97055.78;;;35.52;36.46
21869;BME280;11099;41.564;23.296;2023-07-20T09:17:29;97065.91;;;35.55;37.10
21869;BME280;11099;41.564;23.296;2023-07-20T09:19:55;97003.38;;;35.28;36.73
21869;BME280;11099;41.564;23.296;2023-07-20T09:22:20;97064.84;;;35.73;36.71
21869;BME280;11099;41.564;23.296;2023-07-20T09:24:46;97020.94;;;35.25;36.62
21869;BME280;11099;41.564;23.296;2023-07-20T09:27:12;97022.69;;;35.23;36.79
21869;BME280;11099;41.564;23.296;2023-07-20T09:29:52;97028.06;;;35.11;36.97
21869;BME280;11099;41.564;23.296;2023-07-20T09:32:19;97047.34;;;35.06;37.48
21869;BME280;11099;41.564;23.296;2023-07-20T09:34:49;97049.81;;;35.39;36.78
21869;BME280;11099;41.564;23.296;2023-07-20T09:37:22;97014.47;;;35.49;36.58
21869;BME280;11099;41.564;23.296;2023-07-20T09:39:51;97026.63;;;35.36;37.14
21869;BME280;11099;41.564;23.296;2023-07-20T09:42:17;97051.44;;;35.46;36.88
21869;BME280;11099;41.564;23.296;2023-07-20T09:44:44;97051.56;;;35.01;37.42
21869;BME280;11099;41.564;23.296;2023-07-20T09:47:10;97045.63;;;35.08;37.99
21869;BME280;11099;41.564;23.296;2023-07-20T09:49:41;97046.06;;;35.42;38.60
21869;BME280;11099;41.564;23.296;2023-07-20T09:52:11;97032.47;;;35.59;37.80
21869;BME280;11099;41.564;23.296;2023-07-20T09:54:40;97024.72;;;35.63;37.57
21869;BME280;11099;41.564;23.296;2023-07-20T09:57:08;96973.22;;;35.30;37.44
21869;BME280;11099;41.564;23.296;2023-07-20T09:59:34;97030.88;;;35.73;36.97
21869;BME280;11099;41.564;23.296;2023-07-20T10:02:01;97009.16;;;35.45;37.02
21869;BME280;11099;41.564;23.296;2023-07-20T10:04:29;97030.22;;;35.43;37.55
21869;BME280;11099;41.564;23.296;2023-07-20T10:06:55;97002.00;;;35.59;36.82
21869;BME280;11099;41.564;23.296;2023-07-20T10:09:23;97020.13;;;35.80;36.26
21869;BME280;11099;41.564;23.296;2023-07-20T10:11:50;97021.38;;;35.79;36.43
21869;BME280;11099;41.564;23.296;2023-07-20T10:14:19;96940.56;;;35.14;37.02
21869;BME280;11099;41.564;23.296;2023-07-20T10:16:55;97010.66;;;35.67;37.00
21869;BME280;11099;41.564;23.296;2023-07-20T10:19:36;96986.34;;;35.76;36.62
21869;BME280;11099;41.564;23.296;2023-07-20T10:22:19;96940.84;;;35.83;36.33
21869;BME280;11099;41.564;23.296;2023-07-20T10:24:50;96884.38;;;35.75;35.77
21869;BME280;11099;41.564;23.296;2023-07-20T10:27:20;96975.94;;;36.18;34.81
21869;BME280;11099;41.564;23.296;2023-07-20T10:29:47;96993.53;;;36.72;34.98
21869;BME280;11099;41.564;23.296;2023-07-20T10:32:13;96899.13;;;36.18;34.78
21869;BME280;11099;41.564;23.296;2023-07-20T10:34:39;96984.00;;;36.79;33.79
21869;BME280;11099;41.564;23.296;2023-07-20T10:37:04;96985.53;;;36.85;33.90
21869;BME280;11099;41.564;23.296;2023-07-20T10:39:33;96956.28;;;36.15;34.52
21869;BME280;11099;41.564;23.296;2023-07-20T10:42:03;96978.06;;;36.60;34.27
21869;BME280;11099;41.564;23.296;2023-07-20T10:44:31;96929.28;;;36.42;34.10
21869;BME280;11099;41.564;23.296;2023-07-20T10:47:08;96970.22;;;36.58;34.92
21869;BME280;11099;41.564;23.296;2023-07-20T10:49:34;96856.97;;;36.08;34.50
21869;BME280;11099;41.564;23.296;2023-07-20T10:52:04;96920.81;;;36.94;33.69
21869;BME280;11099;41.564;23.296;2023-07-20T10:56:57;96967.28;;;37.05;34.02
21869;BME280;11099;41.564;23.296;2023-07-20T11:01:48;96935.59;;;36.85;34.26
21869;BME280;11099;41.564;23.296;2023-07-20T11:04:17;96959.16;;;36.58;34.89
21869;BME280;11099;41.564;23.296;2023-07-20T11:06:55;96953.84;;;36.55;34.30
21869;BME280;11099;41.564;23.296;2023-07-20T11:09:22;96914.09;;;36.69;33.27
21869;BME280;11099;41.564;23.296;2023-07-20T11:11:50;96943.66;;;37.26;34.35
21869;BME280;11099;41.564;23.296;2023-07-20T11:16:49;96922.31;;;37.60;33.12
21869;BME280;11099;41.564;23.296;2023-07-20T11:24:17;96949.03;;;37.52;32.54
21869;BME280;11099;41.564;23.296;2023-07-20T11:26:51;96907.88;;;37.39;32.08
21869;BME280;11099;41.564;23.296;2023-07-20T11:29:17;96880.81;;;37.23;32.42
21869;BME280;11099;41.564;23.296;2023-07-20T11:31:45;96887.34;;;36.60;32.81
21869;BME280;11099;41.564;23.296;2023-07-20T11:34:15;96824.59;;;36.68;33.14
21869;BME280;11099;41.564;23.296;2023-07-20T11:36:42;96914.81;;;37.89;33.02
21869;BME280;11099;41.564;23.296;2023-07-20T11:39:09;96854.41;;;37.44;33.82
21869;BME280;11099;41.564;23.296;2023-07-20T11:41:35;96821.03;;;37.22;32.39
21869;BME280;11099;41.564;23.296;2023-07-20T11:44:01;96905.69;;;37.77;32.56
21869;BME280;11099;41.564;23.296;2023-07-20T11:46:28;96917.34;;;37.92;31.75
21869;BME280;11099;41.564;23.296;2023-07-20T11:48:59;96909.00;;;37.87;31.79
21869;BME280;11099;41.564;23.296;2023-07-20T11:51:28;96856.44;;;37.55;32.29
21869;BME280;11099;41.564;23.296;2023-07-20T11:53:55;96848.28;;;37.29;32.02
21869;BME280;11099;41.564;23.296;2023-07-20T11:56:22;96901.19;;;38.19;32.72
21869;BME280;11099;41.564;23.296;2023-07-20T11:58:48;96902.19;;;37.82;32.55
21869;BME280;11099;41.564;23.296;2023-07-20T12:01:14;96877.28;;;37.28;32.80
21869;BME280;11099;41.564;23.296;2023-07-20T12:03:41;96909.44;;;37.63;32.61
21869;BME280;11099;41.564;23.296;2023-07-20T12:06:08;96876.88;;;37.58;32.55
21869;BME280;11099;41.564;23.296;2023-07-20T12:08:46;96885.00;;;37.84;32.33
21869;BME280;11099;41.564;23.296;2023-07-20T12:11:12;96815.03;;;37.52;31.86
21869;BME280;11099;41.564;23.296;2023-07-20T12:13:44;96803.41;;;37.36;31.98
21869;BME280;11099;41.564;23.296;2023-07-20T12:16:15;96877.69;;;37.92;31.86
21869;BME280;11099;41.564;23.296;2023-07-20T12:18:42;96865.03;;;38.02;31.75
21869;BME280;11099;41.564;23.296;2023-07-20T12:21:08;96828.94;;;37.96;31.80
21869;BME280;11099;41.564;23.296;2023-07-20T12:23:39;96852.69;;;38.09;31.35
21869;BME280;11099;41.564;23.296;2023-07-20T12:26:09;96866.56;;;38.09;31.34
21869;BME280;11099;41.564;23.296;2023-07-20T12:28:41;96805.69;;;37.60;32.01
21869;BME280;11099;41.564;23.296;2023-07-20T12:31:08;96855.47;;;38.03;30.93
21869;BME280;11099;41.564;23.296;2023-07-20T12:33:35;96716.06;;;37.32;31.27
21869;BME280;11099;41.564;23.296;2023-07-20T12:36:01;96856.16;;;38.48;nan
21869;BME280;11099;41.564;23.296;2023-07-20T12:38:27;96771.09;;;37.61;31.77
21869;BME280;11099;41.564;23.296;2023-07-20T12:40:53;96820.09;;;37.48;32.23
21869;BME280;11099;41.564;23.296;2023-07-20T12:43:21;96781.69;;;37.40;32.25
21869;BME280;11099;41.564;23.296;2023-07-20T12:45:46;96782.47;;;37.52;32.86
21869;BME280;11099;41.564;23.296;2023-07-20T12:48:12;96766.53;;;37.30;32.69
21869;BME280;11099;41.564;23.296;2023-07-20T12:50:37;96805.88;;;37.23;32.76
21869;BME280;11099;41.564;23.296;2023-07-20T12:53:03;96788.72;;;37.19;32.13
21869;BME280;11099;41.564;23.296;2023-07-20T12:55:29;96783.50;;;36.67;32.61
21869;BME280;11099;41.564;23.296;2023-07-20T12:57:57;96676.63;;;36.55;31.93
21869;BME280;11099;41.564;23.296;2023-07-20T13:00:23;96699.88;;;36.91;32.82
21869;BME280;11099;41.564;23.296;2023-07-20T13:02:50;96831.44;;;37.55;33.12
21869;BME280;11099;41.564;23.296;2023-07-20T13:05:17;96700.41;;;37.06;32.59
21869;BME280;11099;41.564;23.296;2023-07-20T13:07:44;96791.81;;;37.94;32.66
21869;BME280;11099;41.564;23.296;2023-07-20T13:10:13;96776.13;;;38.02;32.52
21869;BME280;11099;41.564;23.296;2023-07-20T13:12:39;96810.97;;;38.31;31.97